createdAt,value
2023-05-04T00:02:15.003Z,8.02
2023-05-04T00:07:19.108Z,7.60
2023-05-04T00:12:22.172Z,7.93
2023-05-04T00:17:23.867Z,8.32
2023-05-04T00:22:25.714Z,8.50
2023-05-04T00:27:27.343Z,8.60
2023-05-04T00:32:29.108Z,8.70
2023-05-04T00:37:30.755Z,8.52
2023-05-04T00:42:32.411Z,7.70
2023-05-04T00:47:34.189Z,8.75
2023-05-04T00:52:37.517Z,8.07
2023-05-04T00:57:39.593Z,7.93
2023-05-04T01:02:42.159Z,7.88
2023-05-04T01:08:13.481Z,7.20
2023-05-04T01:13:16.692Z,8.30
2023-05-04T01:18:19.020Z,7.28
2023-05-04T01:23:22.563Z,8.15
2023-05-04T01:28:36.734Z,7.88
2023-05-04T01:33:39.153Z,7.97
2023-05-04T01:38:42.169Z,7.82
2023-05-04T01:43:43.879Z,7.05
2023-05-04T01:48:45.676Z,7.30
2023-05-04T01:53:47.287Z,7.53
2023-05-04T01:58:50.064Z,7.03
2023-05-04T02:03:51.898Z,6.85
2023-05-04T02:08:53.889Z,6.57
2023-05-04T02:13:55.574Z,6.53
2023-05-04T02:18:57.253Z,6.68
2023-05-04T02:23:59.331Z,6.72
2023-05-04T02:29:02.455Z,7.55
2023-05-04T02:34:04.047Z,6.15
2023-05-04T02:39:05.669Z,6.82
2023-05-04T02:44:08.833Z,6.78
2023-05-04T02:49:10.477Z,6.80
2023-05-04T02:54:12.344Z,6.30
2023-05-04T02:59:14.730Z,7.00
2023-05-04T03:04:16.528Z,6.68
2023-05-04T03:09:18.422Z,6.50
2023-05-04T03:14:21.473Z,6.78
2023-05-04T03:19:23.352Z,6.80
2023-05-04T03:24:25.509Z,6.78
2023-05-04T03:29:27.375Z,7.10
2023-05-04T03:34:30.325Z,6.34
2023-05-04T03:39:36.431Z,7.97
2023-05-04T03:44:38.098Z,7.72
2023-05-04T03:49:39.777Z,7.63
2023-05-04T03:54:41.369Z,7.70
2023-05-04T03:59:43.551Z,7.63
2023-05-04T04:04:45.439Z,8.07
2023-05-04T04:09:47.250Z,8.10
2023-05-04T04:14:51.006Z,8.45
2023-05-04T04:19:52.573Z,7.72
2023-05-04T04:24:54.211Z,9.15
2023-05-04T04:29:55.962Z,8.13
2023-05-04T04:34:57.681Z,8.27
2023-05-04T04:39:59.377Z,9.57
2023-05-04T04:45:01.136Z,10.55
2023-05-04T04:50:05.640Z,9.63
2023-05-04T04:55:08.157Z,9.45
2023-05-04T05:00:10.569Z,9.85
2023-05-04T05:05:13.031Z,9.05
2023-05-04T05:10:14.915Z,10.93
2023-05-04T05:15:17.067Z,10.52
2023-05-04T05:20:18.798Z,9.85
2023-05-04T05:25:21.512Z,15.13
2023-05-04T05:30:23.280Z,9.88
2023-05-04T05:35:24.880Z,10.52
2023-05-04T05:40:26.537Z,10.30
2023-05-04T05:45:28.364Z,10.60
2023-05-04T05:50:30.052Z,10.63
2023-05-04T05:55:31.716Z,11.13
2023-05-04T06:00:33.313Z,10.80
2023-05-04T06:05:36.829Z,11.45
2023-05-04T06:10:38.486Z,12.00
2023-05-04T06:15:40.112Z,12.60
2023-05-04T06:20:41.724Z,12.57
2023-05-04T06:25:43.497Z,12.73
2023-05-04T06:30:45.279Z,11.80
2023-05-04T06:35:47.103Z,10.75
2023-05-04T06:40:48.805Z,11.30
2023-05-04T06:45:51.905Z,12.85
2023-05-04T06:50:53.845Z,11.05
2023-05-04T06:55:55.461Z,11.63
2023-05-04T07:00:57.207Z,10.65
2023-05-04T07:05:58.837Z,12.10
2023-05-04T07:11:00.698Z,9.98
2023-05-04T07:16:02.305Z,11.43
2023-05-04T07:21:21.906Z,11.98
2023-05-04T07:26:26.008Z,11.68
2023-05-04T07:31:29.499Z,10.85
2023-05-04T07:36:35.318Z,11.32
2023-05-04T07:41:37.150Z,11.25
2023-05-04T07:46:39.073Z,13.43
2023-05-04T07:51:40.758Z,12.43
2023-05-04T07:56:42.491Z,11.95
2023-05-04T08:01:44.756Z,11.23
2023-05-04T08:06:46.541Z,12.50
2023-05-04T08:11:49.047Z,12.13
2023-05-04T08:16:53.786Z,12.15
2023-05-04T08:21:55.545Z,13.73
2023-05-04T08:27:07.038Z,11.57
2023-05-04T08:32:09.904Z,14.30
2023-05-04T08:37:11.749Z,12.20
2023-05-04T08:42:13.526Z,12.80
2023-05-04T08:47:15.392Z,12.63
2023-05-04T08:52:17.595Z,13.20
2023-05-04T08:57:22.105Z,13.68
2023-05-04T09:02:24.791Z,13.05
2023-05-04T09:07:26.917Z,25.00
2023-05-04T09:12:28.744Z,13.25
2023-05-04T09:17:30.524Z,11.75
2023-05-04T09:22:32.542Z,11.57
2023-05-04T09:27:34.202Z,11.75
2023-05-04T09:32:46.596Z,10.75
2023-05-04T09:37:48.941Z,14.68
2023-05-04T09:42:57.003Z,12.25
2023-05-04T09:47:58.849Z,12.43
2023-05-04T09:53:00.988Z,13.15
2023-05-04T09:58:03.031Z,13.35
2023-05-04T10:03:06.575Z,11.50
2023-05-04T10:08:08.778Z,14.27
2023-05-04T10:13:10.533Z,15.18
2023-05-04T10:18:43.396Z,13.50
2023-05-04T10:24:21.996Z,14.65
2023-05-04T10:29:29.559Z,12.20
2023-05-04T10:34:33.052Z,11.98
2023-05-04T10:39:36.207Z,9.50
2023-05-04T10:44:56.812Z,11.38
2023-05-04T10:50:09.837Z,11.18
2023-05-04T10:55:11.731Z,11.32
2023-05-04T11:00:15.816Z,11.50
2023-05-04T11:05:21.546Z,10.02
2023-05-04T11:10:25.235Z,10.88
2023-05-04T11:15:26.998Z,11.57
2023-05-04T11:20:28.647Z,12.18
2023-05-04T11:25:31.211Z,13.20
2023-05-04T11:30:34.642Z,10.90
2023-05-04T11:35:36.657Z,11.70
2023-05-04T11:40:41.141Z,9.05
2023-05-04T11:45:43.416Z,10.45
2023-05-04T11:50:47.214Z,11.75
2023-05-04T11:55:50.136Z,10.30
2023-05-04T12:00:56.771Z,15.52
2023-05-04T12:05:59.348Z,10.95
2023-05-04T12:11:13.479Z,12.63
2023-05-04T12:16:20.215Z,11.27
2023-05-04T12:21:25.079Z,16.02
2023-05-04T12:26:27.605Z,12.13
2023-05-04T12:31:30.486Z,11.88
2023-05-04T12:36:32.161Z,10.40
2023-05-04T12:41:34.048Z,10.10
2023-05-04T12:46:35.832Z,11.80
2023-05-04T12:51:37.468Z,11.73
2023-05-04T12:56:39.828Z,8.68
2023-05-04T13:01:41.789Z,9.52
2023-05-04T13:06:44.625Z,10.23
2023-05-04T13:11:47.568Z,9.40
2023-05-04T13:16:51.038Z,10.30
2023-05-04T13:21:54.270Z,10.88
2023-05-04T13:26:56.263Z,10.80
2023-05-04T13:31:59.400Z,10.32
2023-05-04T13:37:01.274Z,9.63
2023-05-04T13:42:03.987Z,7.70
2023-05-04T13:47:05.676Z,11.48
2023-05-04T13:52:07.554Z,10.57
2023-05-04T13:57:09.174Z,9.63
2023-05-04T14:02:10.858Z,9.85
2023-05-04T14:07:12.513Z,9.15
2023-05-04T14:12:15.726Z,9.00
2023-05-04T14:17:17.619Z,10.45
2023-05-04T14:22:19.639Z,8.15
2023-05-04T14:27:24.012Z,10.80
2023-05-04T14:32:25.806Z,8.38
2023-05-04T14:37:27.492Z,9.55
2023-05-04T14:42:29.140Z,6.88
2023-05-04T14:47:30.975Z,9.07
2023-05-04T14:52:32.794Z,7.45
2023-05-04T14:57:34.486Z,5.07
2023-05-04T15:02:36.228Z,7.40
2023-05-04T15:07:38.556Z,6.53
2023-05-04T15:12:40.388Z,5.80
2023-05-04T15:17:42.171Z,14.15
2023-05-04T15:22:53.983Z,7.10
2023-05-04T15:27:55.953Z,7.35
2023-05-04T15:32:57.841Z,6.90
2023-05-04T15:38:00.182Z,6.60
2023-05-04T15:43:01.887Z,7.28
2023-05-04T15:48:03.746Z,7.13
2023-05-04T15:53:05.384Z,5.55
2023-05-04T15:58:07.790Z,7.10
2023-05-04T16:03:09.561Z,6.43
2023-05-04T16:08:11.606Z,7.55
2023-05-04T16:13:13.453Z,7.32
2023-05-04T16:18:15.342Z,7.38
2023-05-04T16:23:17.873Z,7.28
2023-05-04T16:28:20.134Z,7.20
2023-05-04T16:33:22.129Z,7.38
2023-05-04T16:38:23.981Z,6.60
2023-05-04T16:43:25.851Z,8.23
2023-05-04T16:48:27.825Z,8.38
2023-05-04T16:53:29.542Z,8.13
2023-05-04T16:58:31.400Z,8.18
2023-05-04T17:03:33.104Z,7.35
2023-05-04T17:08:34.987Z,6.82
2023-05-04T17:13:36.968Z,8.30
2023-05-04T17:18:38.717Z,8.38
2023-05-04T17:23:41.613Z,7.88
2023-05-04T17:28:43.415Z,8.57
2023-05-04T17:33:45.761Z,8.48
2023-05-04T17:38:47.457Z,8.95
2023-05-04T17:43:50.275Z,9.57
2023-05-04T17:48:53.205Z,8.70
2023-05-04T17:53:54.908Z,8.55
2023-05-04T17:58:56.577Z,8.40
2023-05-04T18:03:58.622Z,8.95
2023-05-04T18:09:01.477Z,9.05
2023-05-04T18:14:03.687Z,8.15
2023-05-04T18:19:06.632Z,7.78
2023-05-04T18:24:08.538Z,8.15
2023-05-04T18:29:19.002Z,9.50
2023-05-04T18:34:22.060Z,9.18
2023-05-04T18:39:23.805Z,9.98
2023-05-04T18:44:25.505Z,8.73
2023-05-04T18:49:27.459Z,9.43
2023-05-04T18:54:32.715Z,10.05
2023-05-04T18:59:35.036Z,9.15
2023-05-04T19:04:37.119Z,9.43
2023-05-04T19:09:38.844Z,8.68
2023-05-04T19:14:40.737Z,8.57
2023-05-04T19:19:42.433Z,8.32
2023-05-04T19:24:44.215Z,8.85
2023-05-04T19:29:46.667Z,9.65
2023-05-04T19:34:48.467Z,8.45
2023-05-04T19:39:53.320Z,9.32
2023-05-04T19:44:54.900Z,8.50
2023-05-04T19:49:56.652Z,9.13
2023-05-04T19:54:58.384Z,8.85
2023-05-04T20:00:02.067Z,9.25
2023-05-04T20:05:13.771Z,10.18
2023-05-04T20:10:15.648Z,9.85
2023-05-04T20:15:17.633Z,10.10
2023-05-04T20:20:20.637Z,9.45
2023-05-04T20:25:22.903Z,9.32
2023-05-04T20:30:28.090Z,9.25
2023-05-04T20:35:29.859Z,9.98
2023-05-04T20:40:32.147Z,9.02
2023-05-04T20:45:34.306Z,9.73
2023-05-04T20:50:36.029Z,9.00
2023-05-04T20:55:37.712Z,9.23
2023-05-04T21:00:40.132Z,9.05
2023-05-04T21:05:41.939Z,8.50
2023-05-04T21:10:43.541Z,11.65
2023-05-04T21:15:45.304Z,9.65
2023-05-04T21:20:47.308Z,9.88
2023-05-04T21:25:48.949Z,9.00
2023-05-04T21:30:53.607Z,9.43
2023-05-04T21:35:55.297Z,9.35
2023-05-04T21:40:56.995Z,10.95
2023-05-04T21:45:58.579Z,10.38
2023-05-04T21:51:00.731Z,10.55
2023-05-04T21:56:09.532Z,10.63
2023-05-04T22:01:15.782Z,10.50
2023-05-04T22:06:17.526Z,11.02
2023-05-04T22:11:19.170Z,9.85
2023-05-04T22:16:22.117Z,10.43
2023-05-04T22:21:23.911Z,10.27
2023-05-04T22:26:25.542Z,11.15
2023-05-04T22:31:27.283Z,10.10
2023-05-04T22:36:28.969Z,11.43
2023-05-04T22:41:31.933Z,11.45
2023-05-04T22:46:33.577Z,11.50
2023-05-04T22:51:35.492Z,10.85
2023-05-04T22:56:37.116Z,9.48
2023-05-04T23:01:43.217Z,8.68
2023-05-04T23:06:45.259Z,9.95
2023-05-04T23:11:47.555Z,9.63
2023-05-04T23:16:49.226Z,9.07
2023-05-04T23:21:51.886Z,8.55
2023-05-04T23:26:53.573Z,9.05
2023-05-04T23:31:55.275Z,12.02
2023-05-04T23:36:57.146Z,9.18
2023-05-04T23:41:58.834Z,8.52
2023-05-04T23:47:00.545Z,8.43
2023-05-04T23:52:03.104Z,7.78
2023-05-04T23:57:07.737Z,7.85
